TimeCDT,TemperatureF,Dew PointF,Humidity,Sea Level PressureIn,VisibilityMPH,Wind Direction,Wind SpeedMPH,Gust SpeedMPH,PrecipitationIn,Events,Conditions,WindDirDegrees,DateUTC
12:53 AM,53.1,48.0,83,30.10,10.0,SSW,5.8,-,N/A,,Clear,210,2013-05-11 05:53:00
1:53 AM,51.1,48.0,89,30.10,10.0,SW,8.1,-,N/A,,Clear,220,2013-05-11 06:53:00
2:53 AM,51.1,48.0,89,30.09,10.0,WSW,6.9,-,N/A,,Clear,240,2013-05-11 07:53:00
3:53 AM,50.0,46.9,89,30.10,10.0,WNW,9.2,-,N/A,,Clear,290,2013-05-11 08:53:00
4:53 AM,51.1,46.0,83,30.10,10.0,NW,9.2,-,N/A,,Clear,310,2013-05-11 09:53:00
5:53 AM,52.0,46.0,80,30.13,10.0,NNW,13.8,-,N/A,,Clear,340,2013-05-11 10:53:00
6:53 AM,52.0,44.1,74,30.18,10.0,North,11.5,-,N/A,,Clear,10,2013-05-11 11:53:00
7:53 AM,54.0,45.0,72,30.22,10.0,North,16.1,-,N/A,,Clear,360,2013-05-11 12:53:00
8:53 AM,57.0,43.0,59,30.25,10.0,NNE,21.9,27.6,N/A,,Clear,30,2013-05-11 13:53:00
9:53 AM,57.0,37.9,49,30.28,10.0,NNE,21.9,-,N/A,,Scattered Clouds,30,2013-05-11 14:53:00
10:53 AM,61.0,37.9,42,30.29,10.0,NNE,21.9,29.9,N/A,,Clear,30,2013-05-11 15:53:00
11:53 AM,63.0,37.0,38,30.31,10.0,North,21.9,33.4,N/A,,Clear,10,2013-05-11 16:53:00
12:53 PM,64.0,35.1,34,30.30,10.0,NNE,16.1,25.3,N/A,,Clear,20,2013-05-11 17:53:00
1:53 PM,64.9,30.9,28,30.30,10.0,North,16.1,25.3,N/A,,Clear,360,2013-05-11 18:53:00
2:53 PM,66.0,28.9,25,30.29,10.0,North,16.1,25.3,N/A,,Clear,360,2013-05-11 19:53:00
3:53 PM,66.9,28.9,24,30.28,10.0,NNE,13.8,20.7,N/A,,Clear,30,2013-05-11 20:53:00
4:53 PM,66.9,28.9,24,30.26,10.0,North,16.1,23.0,N/A,,Clear,350,2013-05-11 21:53:00
5:53 PM,66.0,28.0,24,30.25,10.0,NNE,11.5,-,N/A,,Clear,20,2013-05-11 22:53:00
6:53 PM,66.0,28.9,25,30.24,10.0,NNE,8.1,-,N/A,,Clear,20,2013-05-11 23:53:00
7:53 PM,63.0,30.9,30,30.23,10.0,NNE,3.5,-,N/A,,Clear,30,2013-05-12 00:53:00
8:53 PM,57.9,30.9,36,30.24,10.0,NE,4.6,-,N/A,,Clear,50,2013-05-12 01:53:00
9:53 PM,51.1,35.1,54,30.26,10.0,East,9.2,-,N/A,,Clear,90,2013-05-12 02:53:00
10:53 PM,50.0,36.0,59,30.27,10.0,ESE,9.2,-,N/A,,Clear,120,2013-05-12 03:53:00
11:53 PM,48.0,35.1,61,30.26,10.0,SE,9.2,-,N/A,,Clear,130,2013-05-12 04:53:00